createdAt,value
2022-09-14T00:01:27.387Z,99328.19
2022-09-14T00:04:00.439Z,99330.16
2022-09-14T00:06:28.160Z,99324.50
2022-09-14T00:08:55.937Z,99319.91
2022-09-14T00:11:24.590Z,99304.69
2022-09-14T00:13:51.950Z,99300.53
2022-09-14T00:16:27.179Z,99289.53
2022-09-14T00:18:56.725Z,99294.06
2022-09-14T00:21:24.074Z,99289.53
2022-09-14T00:23:50.443Z,99284.28
2022-09-14T00:26:20.311Z,99288.72
2022-09-14T00:28:52.896Z,99291.81
2022-09-14T00:31:20.568Z,99298.06
2022-09-14T00:33:48.466Z,99297.09
2022-09-14T00:36:21.652Z,99304.44
2022-09-14T00:38:48.854Z,99294.41
2022-09-14T00:41:18.932Z,99283.56
2022-09-14T00:43:57.654Z,99281.59
2022-09-14T00:46:26.020Z,99279.28
2022-09-14T00:48:53.520Z,99279.81
2022-09-14T00:51:21.599Z,99272.88
2022-09-14T00:53:48.437Z,99270.38
2022-09-14T00:56:15.304Z,99267.22
2022-09-14T00:58:44.596Z,99275.28
2022-09-14T01:01:11.192Z,99273.63
2022-09-14T01:03:37.766Z,99281.09
2022-09-14T01:06:17.677Z,99277.91
2022-09-14T01:09:02.448Z,99283.63
2022-09-14T01:11:58.295Z,99289.03
2022-09-14T01:14:31.249Z,99307.78
2022-09-14T01:17:07.301Z,99331.97
2022-09-14T01:19:52.871Z,99338.06
2022-09-14T01:22:25.717Z,99343.56
2022-09-14T01:24:57.995Z,99348.00
2022-09-14T01:27:41.011Z,99346.53
2022-09-14T01:30:19.128Z,99357.38
2022-09-14T01:32:56.110Z,99394.63
2022-09-14T01:35:37.858Z,99418.34
2022-09-14T01:38:26.572Z,99404.72
2022-09-14T01:40:53.549Z,99390.59
2022-09-14T01:43:25.246Z,99381.72
2022-09-14T01:45:56.954Z,99374.63
2022-09-14T01:49:04.186Z,99378.00
2022-09-14T01:51:53.482Z,99356.63
2022-09-14T01:54:33.127Z,99340.00
2022-09-14T01:57:15.463Z,99357.59
2022-09-14T01:59:45.608Z,99355.56
2022-09-14T02:02:28.827Z,99352.91
2022-09-14T02:05:09.348Z,99337.13
2022-09-14T02:07:37.119Z,99329.50
2022-09-14T02:10:06.582Z,99319.66
2022-09-14T02:12:33.249Z,99317.47
2022-09-14T02:14:59.747Z,99324.94
2022-09-14T02:17:26.276Z,99318.84
2022-09-14T02:19:58.651Z,99334.91
2022-09-14T02:22:26.885Z,99346.56
2022-09-14T02:24:54.300Z,99331.72
2022-09-14T02:27:21.509Z,99299.44
2022-09-14T02:29:48.820Z,99264.38
2022-09-14T02:32:30.460Z,99262.56
2022-09-14T02:35:15.008Z,99267.16
2022-09-14T02:38:12.922Z,99256.47
2022-09-14T02:40:47.712Z,99245.41
2022-09-14T02:43:26.029Z,99251.50
2022-09-14T02:46:06.531Z,99247.75
2022-09-14T02:48:43.975Z,99245.25
2022-09-14T02:51:42.007Z,99259.53
2022-09-14T02:54:16.614Z,99250.13
2022-09-14T02:56:44.629Z,99242.94
2022-09-14T02:59:11.594Z,99240.97
2022-09-14T03:01:38.517Z,99250.53
2022-09-14T03:04:05.072Z,99248.59
2022-09-14T03:06:31.791Z,99240.69
2022-09-14T03:08:58.540Z,99236.81
2022-09-14T03:11:24.954Z,99218.78
2022-09-14T03:13:51.334Z,99197.47
2022-09-14T03:16:18.585Z,99194.44
2022-09-14T03:18:45.221Z,99186.38
2022-09-14T03:21:13.880Z,99198.19
2022-09-14T03:23:48.346Z,99199.16
2022-09-14T03:26:17.680Z,99192.75
2022-09-14T03:28:44.321Z,99181.41
2022-09-14T03:31:12.446Z,99174.63
2022-09-14T03:33:39.243Z,99187.41
2022-09-14T03:36:12.294Z,99183.78
2022-09-14T03:38:38.856Z,99197.22
2022-09-14T03:41:10.076Z,99217.19
2022-09-14T03:43:36.434Z,99244.34
2022-09-14T03:46:11.152Z,99263.31
2022-09-14T03:48:37.780Z,99246.97
2022-09-14T03:51:06.347Z,99231.75
2022-09-14T03:53:33.466Z,99234.53
2022-09-14T03:55:59.886Z,99214.31
2022-09-14T03:58:30.958Z,99214.16
2022-09-14T04:01:03.749Z,99212.25
2022-09-14T04:03:31.428Z,99233.16
2022-09-14T04:05:58.467Z,99243.53
2022-09-14T04:08:24.949Z,99206.00
2022-09-14T04:10:51.735Z,99213.06
2022-09-14T04:13:18.315Z,99216.81
2022-09-14T04:15:44.759Z,99222.34
2022-09-14T04:18:11.143Z,99219.56
2022-09-14T04:20:37.531Z,99221.94
2022-09-14T04:23:03.855Z,99221.22
2022-09-14T04:25:30.218Z,99218.88
2022-09-14T04:28:19.284Z,99218.44
2022-09-14T04:30:43.174Z,99217.34
2022-09-14T04:33:09.580Z,99227.19
2022-09-14T04:35:37.690Z,99223.84
2022-09-14T04:38:04.656Z,99217.63
2022-09-14T04:40:31.416Z,99216.94
2022-09-14T04:42:57.783Z,99220.41
2022-09-14T04:45:24.200Z,99216.66
2022-09-14T04:47:50.633Z,99212.06
2022-09-14T04:50:17.082Z,99221.09
2022-09-14T04:52:43.452Z,99225.91
2022-09-14T04:55:10.248Z,99237.13
2022-09-14T04:57:36.605Z,99234.19
2022-09-14T05:00:04.180Z,99225.63
2022-09-14T05:02:31.954Z,99235.47
2022-09-14T05:04:58.930Z,99243.66
2022-09-14T05:07:25.283Z,99243.66
2022-09-14T05:09:51.768Z,99233.66
2022-09-14T05:12:18.162Z,99223.53
2022-09-14T05:14:44.505Z,99221.19
2022-09-14T05:17:11.108Z,99229.78
2022-09-14T05:19:37.459Z,99234.91
2022-09-14T05:22:03.924Z,99232.53
2022-09-14T05:24:30.297Z,99241.00
2022-09-14T05:27:00.506Z,99234.78
2022-09-14T05:29:29.546Z,99223.28
2022-09-14T05:31:55.945Z,99215.69
2022-09-14T05:34:22.354Z,99204.88
2022-09-14T05:36:48.805Z,99201.00
2022-09-14T05:39:17.722Z,99200.19
2022-09-14T05:41:49.223Z,99202.81
2022-09-14T05:44:15.591Z,99219.72
2022-09-14T05:46:42.024Z,99226.19
2022-09-14T05:49:08.480Z,99228.00
2022-09-14T05:51:35.139Z,99224.94
2022-09-14T05:54:01.674Z,99215.00
2022-09-14T05:56:29.781Z,99213.34
2022-09-14T05:58:56.418Z,99213.44
2022-09-14T06:01:25.247Z,99209.44
2022-09-14T06:03:56.780Z,99226.44
2022-09-14T06:06:23.759Z,99221.03
2022-09-14T06:08:52.575Z,99227.72
2022-09-14T06:11:21.550Z,99214.56
2022-09-14T06:13:48.247Z,99226.75
2022-09-14T06:16:16.398Z,99224.25
2022-09-14T06:18:44.788Z,99229.38
2022-09-14T06:21:15.240Z,99233.81
2022-09-14T06:23:42.328Z,99236.44
2022-09-14T06:26:09.466Z,99248.19
2022-09-14T06:28:36.152Z,99238.69
2022-09-14T06:31:04.516Z,99233.69
2022-09-14T06:33:31.840Z,99223.16
2022-09-14T06:36:00.942Z,99219.84
2022-09-14T06:38:28.561Z,99217.50
2022-09-14T06:40:57.039Z,99222.50
2022-09-14T06:43:28.579Z,99226.78
2022-09-14T06:46:31.746Z,99222.34
2022-09-14T06:49:10.615Z,99222.47
2022-09-14T06:51:40.635Z,99212.34
2022-09-14T06:54:07.599Z,99213.47
2022-09-14T06:56:41.733Z,99224.25
2022-09-14T06:59:11.426Z,99227.03
2022-09-14T07:01:38.111Z,99217.47
2022-09-14T07:04:05.753Z,99214.16
2022-09-14T07:06:39.147Z,99209.31
2022-09-14T07:09:06.248Z,99203.50
2022-09-14T07:11:32.909Z,99202.22
2022-09-14T07:13:59.456Z,99207.34
2022-09-14T07:16:26.710Z,99216.50
2022-09-14T07:18:54.835Z,99214.94
2022-09-14T07:21:21.665Z,99220.03
2022-09-14T07:23:48.596Z,99217.94
2022-09-14T07:26:16.411Z,99230.28
2022-09-14T07:28:44.483Z,99226.09
2022-09-14T07:31:15.783Z,99229.97
2022-09-14T07:33:42.240Z,99222.47
2022-09-14T07:36:10.787Z,99229.09
2022-09-14T07:38:51.626Z,99235.34
2022-09-14T07:41:20.956Z,99232.41
2022-09-14T07:43:51.844Z,99238.75
2022-09-14T07:46:19.116Z,99247.22
2022-09-14T07:48:45.818Z,99246.09
2022-09-14T07:51:12.758Z,99241.81
2022-09-14T07:53:42.747Z,99248.44
2022-09-14T07:56:10.970Z,99248.44
2022-09-14T07:58:37.345Z,99258.09
2022-09-14T08:01:08.433Z,99261.66
2022-09-14T08:03:36.471Z,99258.97
2022-09-14T08:06:05.802Z,99248.91
2022-09-14T08:08:36.095Z,99266.00
2022-09-14T08:11:07.204Z,99279.00
2022-09-14T08:13:38.588Z,99275.56
2022-09-14T08:16:06.252Z,99269.41
2022-09-14T08:18:35.168Z,99270.53
2022-09-14T08:21:12.539Z,99280.22
2022-09-14T08:23:40.042Z,99286.94
2022-09-14T08:26:08.920Z,99295.41
2022-09-14T08:28:36.454Z,99300.44
2022-09-14T08:31:24.660Z,99290.63
2022-09-14T08:33:57.146Z,99290.69
2022-09-14T08:36:25.335Z,99285.63
2022-09-14T08:38:51.825Z,99288.81
2022-09-14T08:41:18.202Z,99269.84
2022-09-14T08:43:44.753Z,99271.06
2022-09-14T08:46:22.259Z,99282.66
2022-09-14T08:48:49.239Z,99293.44
2022-09-14T08:51:18.013Z,99292.94
2022-09-14T08:53:45.352Z,99296.78
2022-09-14T08:56:17.310Z,99285.69
2022-09-14T08:58:53.055Z,99287.38
2022-09-14T09:01:29.095Z,99280.06
2022-09-14T09:04:12.064Z,99282.72
2022-09-14T09:07:02.552Z,99289.00
2022-09-14T09:09:47.303Z,99287.34
2022-09-14T09:12:19.089Z,99288.34
2022-09-14T09:14:51.723Z,99291.81
2022-09-14T09:17:44.602Z,99292.78
2022-09-14T09:20:16.871Z,99287.16
2022-09-14T09:22:50.228Z,99273.75
2022-09-14T09:25:23.752Z,99267.81
2022-09-14T09:27:51.505Z,99261.34
2022-09-14T09:30:18.161Z,99250.28
2022-09-14T09:32:44.562Z,99247.00
2022-09-14T09:35:18.066Z,99248.09
2022-09-14T09:37:44.488Z,99255.47
2022-09-14T09:40:20.580Z,99262.44
2022-09-14T09:43:10.527Z,99247.28
2022-09-14T09:46:03.053Z,99246.25
2022-09-14T09:48:38.508Z,99236.91
2022-09-14T09:51:10.798Z,99232.31
2022-09-14T09:53:49.883Z,99223.59
2022-09-14T09:56:23.414Z,99221.97
2022-09-14T09:58:54.565Z,99221.94
2022-09-14T10:01:33.114Z,99217.69
2022-09-14T10:04:30.119Z,99211.59
2022-09-14T10:07:00.649Z,99204.19
2022-09-14T10:09:28.923Z,99201.97
2022-09-14T10:12:01.669Z,99200.28
2022-09-14T10:14:31.968Z,99190.03
2022-09-14T10:17:17.263Z,99181.31
2022-09-14T10:19:54.774Z,99177.00
2022-09-14T10:22:32.052Z,99173.19
2022-09-14T10:25:26.082Z,99162.59
2022-09-14T10:27:55.373Z,99155.75
2022-09-14T10:30:51.083Z,99152.41
2022-09-14T10:33:18.612Z,99138.16
2022-09-14T10:35:57.338Z,99128.16
2022-09-14T10:38:36.051Z,99127.06
2022-09-14T10:41:31.321Z,99117.22
2022-09-14T10:44:03.673Z,99120.69
2022-09-14T10:46:37.627Z,99112.03
2022-09-14T10:49:04.058Z,99100.06
2022-09-14T10:51:53.355Z,99101.19
2022-09-14T10:54:48.189Z,99102.34
2022-09-14T10:57:43.957Z,99106.31
2022-09-14T11:00:20.964Z,99098.53
2022-09-14T11:03:02.680Z,99096.72
2022-09-14T11:05:38.695Z,99089.25
2022-09-14T11:08:36.788Z,99087.91
2022-09-14T11:11:25.022Z,99088.66
2022-09-14T11:14:29.887Z,99100.97
2022-09-14T11:16:56.230Z,99091.34
2022-09-14T11:19:53.496Z,99083.72
2022-09-14T11:22:57.282Z,99090.56
2022-09-14T11:25:56.398Z,99090.28
2022-09-14T11:28:30.936Z,99083.13
2022-09-14T11:31:11.881Z,99085.41
2022-09-14T11:33:51.840Z,99075.97
2022-09-14T11:36:36.478Z,99073.22
2022-09-14T11:39:13.080Z,99077.41
2022-09-14T11:41:47.654Z,99071.66
2022-09-14T11:44:21.659Z,99073.50
2022-09-14T11:47:13.003Z,99072.13
2022-09-14T11:49:57.663Z,99064.53
2022-09-14T11:52:27.029Z,99067.06
2022-09-14T11:54:54.413Z,99070.66
2022-09-14T11:57:25.214Z,99075.91
2022-09-14T11:59:52.990Z,99092.03
2022-09-14T12:02:22.353Z,99104.81
2022-09-14T12:05:07.134Z,99114.75
2022-09-14T12:07:39.379Z,99106.78
2022-09-14T12:10:18.079Z,99106.16
2022-09-14T12:13:17.388Z,99105.16
2022-09-14T12:15:45.428Z,99119.09
2022-09-14T12:18:11.821Z,99123.34
2022-09-14T12:20:38.529Z,99129.66
2022-09-14T12:23:13.039Z,99139.31
2022-09-14T12:25:52.919Z,99146.22
2022-09-14T12:28:37.569Z,99172.59
2022-09-14T12:31:04.046Z,99203.44
2022-09-14T12:33:30.912Z,99209.94
2022-09-14T12:35:57.863Z,99209.94
2022-09-14T12:38:30.244Z,99228.91
2022-09-14T12:40:57.512Z,99280.13
2022-09-14T12:43:32.763Z,99298.56
2022-09-14T12:46:31.649Z,99281.78
2022-09-14T12:49:05.773Z,99283.47
2022-09-14T12:51:48.194Z,99282.84
2022-09-14T12:54:29.493Z,99281.72
2022-09-14T12:57:08.057Z,99271.75
2022-09-14T12:59:44.173Z,99272.44
2022-09-14T13:02:48.393Z,99247.25
2022-09-14T13:05:20.093Z,99251.00
2022-09-14T13:07:47.230Z,99257.09
2022-09-14T13:10:22.744Z,99251.97
2022-09-14T13:12:50.777Z,99240.63
2022-09-14T13:15:28.043Z,99249.50
2022-09-14T13:18:03.751Z,99239.22
2022-09-14T13:20:32.430Z,99239.22
2022-09-14T13:22:59.209Z,99240.88
2022-09-14T13:25:36.339Z,99236.84
2022-09-14T13:28:16.804Z,99233.22
2022-09-14T13:30:43.658Z,99239.47
2022-09-14T13:33:17.669Z,99241.09
2022-09-14T13:35:48.979Z,99239.84
2022-09-14T13:38:21.840Z,99234.97
2022-09-14T13:40:50.485Z,99241.19
2022-09-14T13:43:18.346Z,99234.94
2022-09-14T13:45:46.306Z,99231.19
2022-09-14T13:48:18.732Z,99240.59
2022-09-14T13:50:48.677Z,99243.78
2022-09-14T13:53:53.403Z,99241.28
2022-09-14T13:56:29.813Z,99234.50
2022-09-14T13:59:08.518Z,99237.59
2022-09-14T14:01:41.379Z,99234.94
2022-09-14T14:04:24.149Z,99229.69
2022-09-14T14:07:22.256Z,99227.88
2022-09-14T14:09:52.399Z,99237.28
2022-09-14T14:12:26.709Z,99235.63
2022-09-14T14:15:02.072Z,99233.97
2022-09-14T14:17:33.400Z,99218.03
2022-09-14T14:20:21.073Z,99210.56
2022-09-14T14:23:11.028Z,99205.59
2022-09-14T14:25:53.960Z,99203.06
2022-09-14T14:28:26.006Z,99198.91
2022-09-14T14:30:54.129Z,99197.94
2022-09-14T14:33:21.049Z,99190.19
2022-09-14T14:35:49.232Z,99186.88
2022-09-14T14:38:16.323Z,99180.91
2022-09-14T14:40:44.776Z,99163.16
2022-09-14T14:43:18.826Z,99160.91
2022-09-14T14:45:47.731Z,99133.31
2022-09-14T14:48:14.348Z,99117.66
2022-09-14T14:50:40.862Z,99100.56
2022-09-14T14:53:07.707Z,99091.53
2022-09-14T14:55:38.764Z,99077.97
2022-09-14T14:58:08.601Z,99070.16
2022-09-14T15:00:36.791Z,99064.19
2022-09-14T15:03:03.185Z,99076.69
2022-09-14T15:05:30.987Z,99087.53
2022-09-14T15:07:57.635Z,99079.94
2022-09-14T15:10:26.107Z,99082.13
2022-09-14T15:12:52.646Z,99076.63
2022-09-14T15:15:23.196Z,99061.50
2022-09-14T15:17:50.267Z,99053.91
2022-09-14T15:20:19.664Z,99065.34
2022-09-14T15:22:47.141Z,99059.50
2022-09-14T15:25:14.193Z,99060.69
2022-09-14T15:27:40.819Z,99061.06
2022-09-14T15:30:08.786Z,99050.59
2022-09-14T15:32:35.619Z,99040.34
2022-09-14T15:35:03.009Z,99044.25
2022-09-14T15:37:29.520Z,99043.66
2022-09-14T15:39:56.115Z,99044.78
2022-09-14T15:42:24.439Z,99034.81
2022-09-14T15:44:51.229Z,99027.50
2022-09-14T15:47:17.629Z,99033.38
2022-09-14T15:49:44.198Z,99025.75
2022-09-14T15:52:11.626Z,99024.44
2022-09-14T15:54:39.123Z,99024.59
2022-09-14T15:57:07.925Z,99026.09
2022-09-14T15:59:35.265Z,99034.72
2022-09-14T16:02:02.327Z,99028.59
2022-09-14T16:04:29.499Z,99033.22
2022-09-14T16:06:55.846Z,99039.69
2022-09-14T16:09:23.110Z,99038.03
2022-09-14T16:11:49.589Z,99051.06
2022-09-14T16:14:15.956Z,99058.69
2022-09-14T16:16:42.424Z,99057.50
2022-09-14T16:19:13.382Z,99054.88
2022-09-14T16:21:41.593Z,99058.91
2022-09-14T16:24:13.453Z,99053.91
2022-09-14T16:26:40.543Z,99057.72
2022-09-14T16:29:12.754Z,99071.19
2022-09-14T16:31:41.429Z,99074.97
2022-09-14T16:34:18.804Z,99076.06
2022-09-14T16:36:48.509Z,99091.91
2022-09-14T16:39:18.055Z,99085.44
2022-09-14T16:41:45.099Z,99085.56
2022-09-14T16:44:23.334Z,99089.34
2022-09-14T16:46:50.948Z,99089.16
2022-09-14T16:49:19.196Z,99087.09
2022-09-14T16:51:47.749Z,99097.16
2022-09-14T16:54:23.066Z,99077.84
2022-09-14T16:56:50.264Z,99085.41
2022-09-14T16:59:17.724Z,99092.50
2022-09-14T17:01:48.692Z,99103.38
2022-09-14T17:04:22.061Z,99108.94
2022-09-14T17:06:50.336Z,99103.66
2022-09-14T17:09:20.475Z,99102.81
2022-09-14T17:11:48.507Z,99094.38
2022-09-14T17:14:21.189Z,99104.41
2022-09-14T17:16:47.788Z,99106.38
2022-09-14T17:19:14.802Z,99111.00
2022-09-14T17:21:43.103Z,99115.63
2022-09-14T17:24:10.299Z,99118.09
2022-09-14T17:26:37.084Z,99115.47
2022-09-14T17:29:05.272Z,99113.81
2022-09-14T17:31:34.720Z,99117.13
2022-09-14T17:34:04.625Z,99112.38
2022-09-14T17:36:31.448Z,99112.16
2022-09-14T17:38:59.711Z,99110.50
2022-09-14T17:41:28.058Z,99112.38
2022-09-14T17:43:57.282Z,99103.38
2022-09-14T17:46:26.778Z,99094.31
2022-09-14T17:48:53.540Z,99094.63
2022-09-14T17:51:22.525Z,99093.81
2022-09-14T17:53:52.511Z,99100.31
2022-09-14T17:56:21.431Z,99095.72
2022-09-14T17:58:49.602Z,99100.06
2022-09-14T18:01:18.969Z,99091.44
2022-09-14T18:03:51.848Z,99100.19
2022-09-14T18:06:19.096Z,99105.47
2022-09-14T18:08:45.760Z,99099.47
2022-09-14T18:11:15.950Z,99093.25
2022-09-14T18:13:43.936Z,99104.91
2022-09-14T18:16:11.241Z,99114.28
2022-09-14T18:18:38.067Z,99119.19
2022-09-14T18:21:04.777Z,99128.88
2022-09-14T18:23:31.437Z,99132.38
2022-09-14T18:25:58.052Z,99128.06
2022-09-14T18:28:24.634Z,99133.56
2022-09-14T18:31:00.048Z,99136.06
2022-09-14T18:33:26.494Z,99135.00
2022-09-14T18:35:54.085Z,99144.50
2022-09-14T18:38:20.450Z,99149.16
2022-09-14T18:40:47.015Z,99140.88
2022-09-14T18:43:15.929Z,99140.41
2022-09-14T18:45:44.143Z,99139.16
2022-09-14T18:48:11.310Z,99142.53
2022-09-14T18:50:38.693Z,99149.78
2022-09-14T18:53:05.863Z,99142.69
2022-09-14T18:55:33.708Z,99144.69
2022-09-14T18:58:01.040Z,99135.84
2022-09-14T19:00:28.186Z,99134.03
2022-09-14T19:02:56.671Z,99132.66
2022-09-14T19:05:24.979Z,99132.13
2022-09-14T19:07:51.448Z,99130.03
2022-09-14T19:10:17.988Z,99124.22
2022-09-14T19:12:44.588Z,99117.97
2022-09-14T19:15:11.559Z,99130.13
2022-09-14T19:17:38.194Z,99125.81
2022-09-14T19:20:06.975Z,99134.16
2022-09-14T19:22:34.433Z,99136.59
2022-09-14T19:25:00.848Z,99135.44
2022-09-14T19:27:27.586Z,99131.69
2022-09-14T19:29:54.020Z,99135.81
2022-09-14T19:32:20.605Z,99142.75
2022-09-14T19:34:47.051Z,99144.44
2022-09-14T19:37:13.551Z,99150.06
2022-09-14T19:39:42.147Z,99158.50
2022-09-14T19:42:08.960Z,99168.91
2022-09-14T19:44:35.348Z,99167.59
2022-09-14T19:47:02.056Z,99168.59
2022-09-14T19:49:28.498Z,99168.91
2022-09-14T19:52:00.451Z,99164.75
2022-09-14T19:54:26.864Z,99160.63
2022-09-14T19:56:53.596Z,99156.19
2022-09-14T19:59:20.107Z,99155.03
2022-09-14T20:01:47.513Z,99161.97
2022-09-14T20:04:15.665Z,99153.53
2022-09-14T20:06:43.541Z,99165.06
2022-09-14T20:09:16.280Z,99163.72
2022-09-14T20:11:45.008Z,99168.00
2022-09-14T20:14:15.198Z,99169.50
2022-09-14T20:16:44.425Z,99172.59
2022-09-14T20:19:16.279Z,99175.38
2022-09-14T20:21:44.516Z,99171.75
2022-09-14T20:24:16.603Z,99166.47
2022-09-14T20:26:50.927Z,99168.84
2022-09-14T20:29:19.587Z,99166.34
2022-09-14T20:31:47.336Z,99176.44
2022-09-14T20:34:16.203Z,99177.78
2022-09-14T20:36:48.626Z,99184.56
2022-09-14T20:39:15.823Z,99194.13
2022-09-14T20:41:42.176Z,99202.03
2022-09-14T20:44:11.938Z,99207.31
2022-09-14T20:46:41.301Z,99205.34
2022-09-14T20:49:11.957Z,99204.41
2022-09-14T20:51:39.220Z,99197.53
2022-09-14T20:54:07.075Z,99190.16
2022-09-14T20:56:35.199Z,99193.91
2022-09-14T20:59:06.862Z,99188.81
2022-09-14T21:01:35.744Z,99192.09
2022-09-14T21:04:05.049Z,99185.19
2022-09-14T21:06:32.044Z,99180.88
2022-09-14T21:08:59.864Z,99187.50
2022-09-14T21:11:27.018Z,99192.63
2022-09-14T21:13:55.098Z,99192.78
2022-09-14T21:16:32.946Z,99197.91
2022-09-14T21:19:02.188Z,99202.72
2022-09-14T21:21:29.472Z,99208.00
2022-09-14T21:23:57.310Z,99206.91
2022-09-14T21:26:25.523Z,99199.81
2022-09-14T21:28:59.739Z,99194.91
2022-09-14T21:31:28.292Z,99193.59
2022-09-14T21:33:57.883Z,99197.16
2022-09-14T21:36:28.124Z,99193.72
2022-09-14T21:38:57.018Z,99189.25
2022-09-14T21:41:26.493Z,99197.38
2022-09-14T21:43:53.449Z,99199.50
2022-09-14T21:46:20.039Z,99198.00
2022-09-14T21:48:46.639Z,99188.19
2022-09-14T21:51:34.229Z,99182.53
2022-09-14T21:54:05.000Z,99181.19
2022-09-14T21:56:34.674Z,99178.16
2022-09-14T21:59:03.091Z,99174.09
2022-09-14T22:01:30.419Z,99181.31
2022-09-14T22:03:57.791Z,99182.69
2022-09-14T22:06:27.605Z,99180.47
2022-09-14T22:08:54.402Z,99176.63
2022-09-14T22:11:23.684Z,99173.41
2022-09-14T22:14:07.978Z,99171.16
2022-09-14T22:16:35.909Z,99171.84
2022-09-14T22:19:05.420Z,99172.00
2022-09-14T22:21:35.514Z,99179.50
2022-09-14T22:24:04.367Z,99187.19
2022-09-14T22:26:32.027Z,99192.91
2022-09-14T22:28:59.276Z,99197.19
2022-09-14T22:31:27.383Z,99202.16
2022-09-14T22:33:55.558Z,99209.41
2022-09-14T22:36:22.564Z,99208.13
2022-09-14T22:38:49.031Z,99211.88
2022-09-14T22:41:22.169Z,99216.50
2022-09-14T22:43:49.031Z,99232.09
2022-09-14T22:46:17.057Z,99232.38
2022-09-14T22:48:44.072Z,99220.72
2022-09-14T22:51:20.367Z,99232.81
2022-09-14T22:53:46.819Z,99227.38
2022-09-14T22:56:23.061Z,99234.47
2022-09-14T22:58:50.103Z,99241.53
2022-09-14T23:01:25.195Z,99236.72
2022-09-14T23:04:00.746Z,99236.19
2022-09-14T23:06:29.647Z,99241.84
2022-09-14T23:08:56.604Z,99232.56
2022-09-14T23:11:23.088Z,99236.56
2022-09-14T23:13:50.258Z,99233.09
2022-09-14T23:16:19.095Z,99229.63
2022-09-14T23:18:50.984Z,99219.38
2022-09-14T23:21:18.163Z,99229.53
2022-09-14T23:23:44.605Z,99218.84
2022-09-14T23:26:12.031Z,99226.75
2022-09-14T23:28:39.141Z,99229.16
2022-09-14T23:31:06.300Z,99228.59
2022-09-14T23:33:32.806Z,99238.19
2022-09-14T23:35:59.389Z,99231.69
2022-09-14T23:38:25.918Z,99230.44
2022-09-14T23:40:52.382Z,99231.84
2022-09-14T23:43:19.440Z,99234.91
2022-09-14T23:45:47.236Z,99223.28
2022-09-14T23:48:14.817Z,99226.50
2022-09-14T23:50:41.242Z,99228.97
2022-09-14T23:53:08.291Z,99219.72
2022-09-14T23:55:35.114Z,99222.34
2022-09-14T23:58:01.488Z,99221.94
